sensor_id;sensor_type;location;lat;lon;timestamp;pressure;altitude;pressure_sealevel;temperature;humidity
71194;BME280;58903;47.210;8.618;2023-02-16T00:02:02;95192.13;;;27.25;35.47
71194;BME280;58903;47.210;8.618;2023-02-16T00:05:00;95194.38;;;27.26;35.65
71194;BME280;58903;47.210;8.618;2023-02-16T00:07:26;95187.34;;;27.25;35.63
71194;BME280;58903;47.210;8.618;2023-02-16T00:10:04;95191.09;;;27.28;35.63
71194;BME280;58903;47.210;8.618;2023-02-16T00:12:40;95187.34;;;27.25;35.80
71194;BME280;58903;47.210;8.618;2023-02-16T00:15:25;95194.38;;;27.26;35.79
71194;BME280;58903;47.210;8.618;2023-02-16T00:17:54;95194.38;;;27.26;35.38
71194;BME280;58903;47.210;8.618;2023-02-16T00:20:21;95197.38;;;27.28;35.18
71194;BME280;58903;47.210;8.618;2023-02-16T00:22:47;95201.41;;;27.27;35.28
71194;BME280;58903;47.210;8.618;2023-02-16T00:25:13;95202.91;;;27.28;35.76
71194;BME280;58903;47.210;8.618;2023-02-16T00:27:43;95200.41;;;27.30;35.65
71194;BME280;58903;47.210;8.618;2023-02-16T00:30:21;95194.13;;;27.30;35.50
71194;BME280;58903;47.210;8.618;2023-02-16T00:32:49;95194.13;;;27.30;35.48
71194;BME280;58903;47.210;8.618;2023-02-16T00:35:16;95196.13;;;27.35;35.01
71194;BME280;58903;47.210;8.618;2023-02-16T00:37:49;95196.63;;;27.33;35.29
71194;BME280;58903;47.210;8.618;2023-02-16T00:40:45;95192.88;;;27.36;35.33
71194;BME280;58903;47.210;8.618;2023-02-16T00:43:27;95205.44;;;27.37;35.33
71194;BME280;58903;47.210;8.618;2023-02-16T00:45:56;95208.72;;;27.36;35.42
71194;BME280;58903;47.210;8.618;2023-02-16T00:48:41;95217.00;;;27.36;35.05
71194;BME280;58903;47.210;8.618;2023-02-16T00:51:22;95211.94;;;27.34;35.36
71194;BME280;58903;47.210;8.618;2023-02-16T00:54:06;95222.25;;;27.34;35.40
71194;BME280;58903;47.210;8.618;2023-02-16T00:56:44;95214.97;;;27.36;35.29
71194;BME280;58903;47.210;8.618;2023-02-16T00:59:43;95223.28;;;27.36;35.28
71194;BME280;58903;47.210;8.618;2023-02-16T01:02:11;95224.25;;;27.33;35.30
71194;BME280;58903;47.210;8.618;2023-02-16T01:05:13;95230.06;;;27.35;35.35
71194;BME280;58903;47.210;8.618;2023-02-16T01:07:41;95234.81;;;27.35;35.35
71194;BME280;58903;47.210;8.618;2023-02-16T01:10:53;95237.09;;;27.36;35.38
71194;BME280;58903;47.210;8.618;2023-02-16T01:13:43;95245.09;;;27.34;35.16
71194;BME280;58903;47.210;8.618;2023-02-16T01:16:42;95233.78;;;27.32;35.03
71194;BME280;58903;47.210;8.618;2023-02-16T01:19:46;95242.09;;;27.32;35.54
71194;BME280;58903;47.210;8.618;2023-02-16T01:22:43;95239.84;;;27.31;35.30
71194;BME280;58903;47.210;8.618;2023-02-16T01:25:20;95244.59;;;27.30;35.57
71194;BME280;58903;47.210;8.618;2023-02-16T01:28:19;95239.84;;;27.31;35.28
71194;BME280;58903;47.210;8.618;2023-02-16T01:31:18;95237.56;;;27.29;35.58
71194;BME280;58903;47.210;8.618;2023-02-16T01:33:46;95232.06;;;27.29;35.48
71194;BME280;58903;47.210;8.618;2023-02-16T01:39:44;95229.78;;;27.28;35.07
71194;BME280;58903;47.210;8.618;2023-02-16T01:45:35;95231.81;;;27.27;35.89
71194;BME280;58903;47.210;8.618;2023-02-16T01:48:40;95229.03;;;27.27;35.53
71194;BME280;58903;47.210;8.618;2023-02-16T01:51:26;95233.28;;;27.28;35.47
71194;BME280;58903;47.210;8.618;2023-02-16T02:02:39;95222.00;;;27.26;35.46
71194;BME280;58903;47.210;8.618;2023-02-16T02:05:28;95224.00;;;27.26;35.31
71194;BME280;58903;47.210;8.618;2023-02-16T02:13:54;95221.25;;;27.26;35.46
71194;BME280;58903;47.210;8.618;2023-02-16T02:16:38;95214.69;;;27.23;35.22
71194;BME280;58903;47.210;8.618;2023-02-16T02:19:19;95205.94;;;27.25;35.42
71194;BME280;58903;47.210;8.618;2023-02-16T02:28:01;95206.16;;;27.21;35.39
71194;BME280;58903;47.210;8.618;2023-02-16T02:36:33;95208.94;;;27.21;35.46
71194;BME280;58903;47.210;8.618;2023-02-16T02:39:45;95214.47;;;27.21;35.34
71194;BME280;58903;47.210;8.618;2023-02-16T02:45:46;95217.72;;;27.20;35.40
71194;BME280;58903;47.210;8.618;2023-02-16T02:48:41;95217.47;;;27.18;35.16
71194;BME280;58903;47.210;8.618;2023-02-16T02:51:22;95218.00;;;27.16;35.67
71194;BME280;58903;47.210;8.618;2023-02-16T03:00:35;95200.41;;;27.19;35.38
71194;BME280;58903;47.210;8.618;2023-02-16T03:06:54;95195.91;;;27.16;35.78
71194;BME280;58903;47.210;8.618;2023-02-16T03:09:24;95196.63;;;27.17;35.52
71194;BME280;58903;47.210;8.618;2023-02-16T03:12:08;95198.66;;;27.16;35.25
71194;BME280;58903;47.210;8.618;2023-02-16T03:14:58;95191.63;;;27.15;35.41
71194;BME280;58903;47.210;8.618;2023-02-16T03:18:00;95193.88;;;27.17;35.39
71194;BME280;58903;47.210;8.618;2023-02-16T03:20:52;95193.13;;;27.16;35.20
71194;BME280;58903;47.210;8.618;2023-02-16T03:23:39;95190.84;;;27.15;35.18
71194;BME280;58903;47.210;8.618;2023-02-16T03:26:52;95196.63;;;27.17;35.56
71194;BME280;58903;47.210;8.618;2023-02-16T03:29:38;95200.41;;;27.14;35.62
71194;BME280;58903;47.210;8.618;2023-02-16T03:32:07;95198.41;;;27.14;35.94
71194;BME280;58903;47.210;8.618;2023-02-16T03:34:49;95190.13;;;27.14;35.84
71194;BME280;58903;47.210;8.618;2023-02-16T03:37:17;95195.66;;;27.14;35.68
71194;BME280;58903;47.210;8.618;2023-02-16T03:39:47;95194.13;;;27.13;35.53
71194;BME280;58903;47.210;8.618;2023-02-16T03:46:02;95203.16;;;27.14;35.57
71194;BME280;58903;47.210;8.618;2023-02-16T03:48:32;95201.41;;;27.16;35.25
71194;BME280;58903;47.210;8.618;2023-02-16T03:51:00;95199.41;;;27.11;35.67
71194;BME280;58903;47.210;8.618;2023-02-16T03:53:37;95203.94;;;27.14;35.76
71194;BME280;58903;47.210;8.618;2023-02-16T03:56:27;95197.66;;;27.14;35.34
71194;BME280;58903;47.210;8.618;2023-02-16T03:59:04;95196.38;;;27.09;35.68
71194;BME280;58903;47.210;8.618;2023-02-16T04:01:30;95200.63;;;27.10;35.60
71194;BME280;58903;47.210;8.618;2023-02-16T04:03:56;95199.41;;;27.11;35.39
71194;BME280;58903;47.210;8.618;2023-02-16T04:06:25;95199.41;;;27.11;35.19
71194;BME280;58903;47.210;8.618;2023-02-16T04:08:54;95200.63;;;27.10;35.67
71194;BME280;58903;47.210;8.618;2023-02-16T04:11:22;95201.66;;;27.07;35.58
71194;BME280;58903;47.210;8.618;2023-02-16T04:14:07;95199.91;;;27.10;35.64
71194;BME280;58903;47.210;8.618;2023-02-16T04:17:00;95197.88;;;27.10;35.35
71194;BME280;58903;47.210;8.618;2023-02-16T04:19:38;95196.13;;;27.07;35.52
71194;BME280;58903;47.210;8.618;2023-02-16T04:22:05;95193.13;;;27.05;35.44
71194;BME280;58903;47.210;8.618;2023-02-16T04:24:31;95202.91;;;27.06;35.90
71194;BME280;58903;47.210;8.618;2023-02-16T04:27:03;95202.13;;;27.06;35.15
71194;BME280;58903;47.210;8.618;2023-02-16T04:29:30;95195.38;;;27.01;35.67
71194;BME280;58903;47.210;8.618;2023-02-16T04:31:56;95199.13;;;26.98;35.67
71194;BME280;58903;47.210;8.618;2023-02-16T04:34:25;95202.16;;;27.00;35.95
71194;BME280;58903;47.210;8.618;2023-02-16T04:37:05;95203.38;;;26.99;36.15
71194;BME280;58903;47.210;8.618;2023-02-16T04:39:45;95197.13;;;26.99;35.94
71194;BME280;58903;47.210;8.618;2023-02-16T04:42:15;95199.13;;;26.98;35.78
71194;BME280;58903;47.210;8.618;2023-02-16T04:44:52;95196.13;;;26.96;35.49
71194;BME280;58903;47.210;8.618;2023-02-16T04:47:28;95200.63;;;26.94;36.06
71194;BME280;58903;47.210;8.618;2023-02-16T04:50:02;95200.13;;;26.95;35.84
71194;BME280;58903;47.210;8.618;2023-02-16T04:52:39;95204.91;;;26.95;35.90
71194;BME280;58903;47.210;8.618;2023-02-16T04:55:25;95208.16;;;26.93;36.15
71194;BME280;58903;47.210;8.618;2023-02-16T04:58:01;95213.69;;;26.93;35.65
71194;BME280;58903;47.210;8.618;2023-02-16T05:00:34;95210.91;;;26.93;36.20
71194;BME280;58903;47.210;8.618;2023-02-16T05:03:00;95209.44;;;26.92;35.59
71194;BME280;58903;47.210;8.618;2023-02-16T05:05:50;95214.94;;;26.92;35.90
71194;BME280;58903;47.210;8.618;2023-02-16T05:08:27;95213.44;;;26.91;36.05
71194;BME280;58903;47.210;8.618;2023-02-16T05:11:10;95211.94;;;26.90;35.67
71194;BME280;58903;47.210;8.618;2023-02-16T05:14:25;95214.69;;;26.90;36.22
71194;BME280;58903;47.210;8.618;2023-02-16T05:17:36;95211.94;;;26.90;36.17
71194;BME280;58903;47.210;8.618;2023-02-16T05:20:22;95216.69;;;26.89;36.47
71194;BME280;58903;47.210;8.618;2023-02-16T05:23:26;95223.47;;;26.88;36.64
71194;BME280;58903;47.210;8.618;2023-02-16T05:26:02;95225.47;;;26.88;36.07
71194;BME280;58903;47.210;8.618;2023-02-16T05:28:39;95219.72;;;26.86;35.92
71194;BME280;58903;47.210;8.618;2023-02-16T05:31:25;95222.47;;;26.86;36.26
71194;BME280;58903;47.210;8.618;2023-02-16T05:34:04;95224.22;;;26.83;36.27
71194;BME280;58903;47.210;8.618;2023-02-16T05:36:36;95225.72;;;26.79;36.07
71194;BME280;58903;47.210;8.618;2023-02-16T05:39:04;95229.72;;;26.78;36.56
71194;BME280;58903;47.210;8.618;2023-02-16T05:41:30;95228.47;;;26.79;36.12
71194;BME280;58903;47.210;8.618;2023-02-16T05:43:59;95231.50;;;26.81;35.97
71194;BME280;58903;47.210;8.618;2023-02-16T05:53:25;95227.97;;;26.75;35.87
71194;BME280;58903;47.210;8.618;2023-02-16T05:56:21;95233.50;;;26.75;36.81
71194;BME280;58903;47.210;8.618;2023-02-16T05:59:05;95229.91;;;26.69;36.49
71194;BME280;58903;47.210;8.618;2023-02-16T06:01:31;95230.47;;;26.73;36.39
71194;BME280;58903;47.210;8.618;2023-02-16T06:03:57;95227.97;;;26.75;35.39
71194;BME280;58903;47.210;8.618;2023-02-16T06:06:23;95232.72;;;26.74;35.77
71194;BME280;58903;47.210;8.618;2023-02-16T06:09:02;95229.66;;;26.67;35.81
71194;BME280;58903;47.210;8.618;2023-02-16T06:11:38;95238.44;;;26.65;36.98
71194;BME280;58903;47.210;8.618;2023-02-16T06:14:14;95238.44;;;26.65;35.97
71194;BME280;58903;47.210;8.618;2023-02-16T06:16:43;95238.44;;;26.65;36.33
71194;BME280;58903;47.210;8.618;2023-02-16T06:19:11;95235.22;;;26.72;37.04
71194;BME280;58903;47.210;8.618;2023-02-16T06:21:38;95231.97;;;26.74;36.49
71194;BME280;58903;47.210;8.618;2023-02-16T06:24:08;95243.00;;;26.74;36.23
71194;BME280;58903;47.210;8.618;2023-02-16T06:26:35;95239.72;;;26.70;37.25
71194;BME280;58903;47.210;8.618;2023-02-16T06:29:05;95248.75;;;26.70;36.70
71194;BME280;58903;47.210;8.618;2023-02-16T06:31:35;95250.03;;;26.75;36.80
71194;BME280;58903;47.210;8.618;2023-02-16T06:34:26;95249.03;;;26.78;36.15
71194;BME280;58903;47.210;8.618;2023-02-16T06:36:55;95251.03;;;26.77;37.05
71194;BME280;58903;47.210;8.618;2023-02-16T06:39:26;95253.06;;;26.77;36.47
71194;BME280;58903;47.210;8.618;2023-02-16T06:41:55;95261.09;;;26.75;35.97
71194;BME280;58903;47.210;8.618;2023-02-16T06:44:40;95262.81;;;26.72;36.63
71194;BME280;58903;47.210;8.618;2023-02-16T06:47:27;95264.53;;;26.70;36.35
71194;BME280;58903;47.210;8.618;2023-02-16T06:50:12;95265.78;;;26.69;36.14
71194;BME280;58903;47.210;8.618;2023-02-16T06:52:54;95261.03;;;26.64;36.36
71194;BME280;58903;47.210;8.618;2023-02-16T06:55:24;95266.03;;;26.65;37.05
71194;BME280;58903;47.210;8.618;2023-02-16T06:57:52;95266.53;;;26.64;36.50
71194;BME280;58903;47.210;8.618;2023-02-16T07:00:46;95273.56;;;26.65;36.69
71194;BME280;58903;47.210;8.618;2023-02-16T07:03:25;95283.56;;;26.62;36.82
71194;BME280;58903;47.210;8.618;2023-02-16T07:06:25;95284.59;;;26.59;36.30
71194;BME280;58903;47.210;8.618;2023-02-16T07:08:53;95281.81;;;26.59;36.38
71194;BME280;58903;47.210;8.618;2023-02-16T07:11:39;95280.03;;;26.56;36.27
71194;BME280;58903;47.210;8.618;2023-02-16T07:14:05;95285.06;;;26.58;36.54
71194;BME280;58903;47.210;8.618;2023-02-16T07:16:31;95278.56;;;26.55;36.56
71194;BME280;58903;47.210;8.618;2023-02-16T07:18:58;95282.03;;;26.56;36.57
71194;BME280;58903;47.210;8.618;2023-02-16T07:21:24;95289.84;;;26.57;36.85
71194;BME280;58903;47.210;8.618;2023-02-16T07:23:50;95287.09;;;26.57;37.08
71194;BME280;58903;47.210;8.618;2023-02-16T07:26:19;95289.84;;;26.63;36.61
71194;BME280;58903;47.210;8.618;2023-02-16T07:28:45;95292.16;;;26.70;36.62
71194;BME280;58903;47.210;8.618;2023-02-16T07:31:14;95296.91;;;26.69;36.46
71194;BME280;58903;47.210;8.618;2023-02-16T07:33:40;95296.66;;;26.67;36.63
71194;BME280;58903;47.210;8.618;2023-02-16T07:36:08;95292.16;;;26.70;36.77
71194;BME280;58903;47.210;8.618;2023-02-16T07:38:36;95297.16;;;26.66;37.27
71194;BME280;58903;47.210;8.618;2023-02-16T07:41:02;95297.16;;;26.66;37.38
71194;BME280;58903;47.210;8.618;2023-02-16T07:43:29;95294.66;;;26.68;37.43
71194;BME280;58903;47.210;8.618;2023-02-16T07:45:56;95306.66;;;26.65;37.23
71194;BME280;58903;47.210;8.618;2023-02-16T07:48:22;95306.16;;;26.61;37.75
71194;BME280;58903;47.210;8.618;2023-02-16T07:50:49;95301.41;;;26.61;37.67
71194;BME280;58903;47.210;8.618;2023-02-16T07:53:21;95297.63;;;26.59;37.93
71194;BME280;58903;47.210;8.618;2023-02-16T07:55:50;95302.38;;;26.58;37.80
71194;BME280;58903;47.210;8.618;2023-02-16T07:58:16;95298.84;;;26.58;38.48
71194;BME280;58903;47.210;8.618;2023-02-16T08:03:37;95299.66;;;26.69;37.66
71194;BME280;58903;47.210;8.618;2023-02-16T08:06:21;95299.72;;;26.75;38.00
71194;BME280;58903;47.210;8.618;2023-02-16T08:08:50;95304.25;;;26.78;38.13
71194;BME280;58903;47.210;8.618;2023-02-16T08:11:19;95303.25;;;26.81;38.37
71194;BME280;58903;47.210;8.618;2023-02-16T08:13:59;95302.25;;;26.84;37.89
71194;BME280;58903;47.210;8.618;2023-02-16T08:16:57;95305.28;;;26.86;37.73
71194;BME280;58903;47.210;8.618;2023-02-16T08:19:23;95302.25;;;26.84;37.57
71194;BME280;58903;47.210;8.618;2023-02-16T08:21:49;95303.00;;;26.79;37.54
71194;BME280;58903;47.210;8.618;2023-02-16T08:24:18;95309.03;;;26.83;38.20
71194;BME280;58903;47.210;8.618;2023-02-16T08:26:55;95300.50;;;26.81;38.43
71194;BME280;58903;47.210;8.618;2023-02-16T08:29:23;95305.28;;;26.86;37.55
71194;BME280;58903;47.210;8.618;2023-02-16T08:31:52;95307.53;;;26.87;37.51
71194;BME280;58903;47.210;8.618;2023-02-16T08:34:34;95297.25;;;26.88;37.17
71194;BME280;58903;47.210;8.618;2023-02-16T08:37:23;95304.28;;;26.89;37.27
71194;BME280;58903;47.210;8.618;2023-02-16T08:39:49;95301.78;;;26.91;37.46
71194;BME280;58903;47.210;8.618;2023-02-16T08:42:16;95295.47;;;26.90;37.91
71194;BME280;58903;47.210;8.618;2023-02-16T08:44:43;95304.78;;;26.93;37.36
71194;BME280;58903;47.210;8.618;2023-02-16T08:47:10;95294.25;;;26.92;37.70
71194;BME280;58903;47.210;8.618;2023-02-16T08:49:46;95294.00;;;26.89;37.94
71194;BME280;58903;47.210;8.618;2023-02-16T08:52:12;95292.97;;;26.87;37.21
71194;BME280;58903;47.210;8.618;2023-02-16T08:54:46;95301.78;;;26.91;37.80
71194;BME280;58903;47.210;8.618;2023-02-16T08:57:18;95302.78;;;26.94;37.07
71194;BME280;58903;47.210;8.618;2023-02-16T08:59:56;95310.31;;;26.93;37.21
71194;BME280;58903;47.210;8.618;2023-02-16T09:02:40;95305.28;;;26.92;37.83
71194;BME280;58903;47.210;8.618;2023-02-16T09:05:40;95304.56;;;26.97;37.33
71194;BME280;58903;47.210;8.618;2023-02-16T09:08:08;95312.34;;;26.98;38.02
71194;BME280;58903;47.210;8.618;2023-02-16T09:10:45;95308.31;;;26.99;37.53
71194;BME280;58903;47.210;8.618;2023-02-16T09:13:21;95312.59;;;27.00;37.96
71194;BME280;58903;47.210;8.618;2023-02-16T09:15:52;95312.34;;;26.98;37.43
71194;BME280;58903;47.210;8.618;2023-02-16T09:18:18;95308.09;;;27.03;37.63
71194;BME280;58903;47.210;8.618;2023-02-16T09:20:46;95315.34;;;27.00;37.26
71194;BME280;58903;47.210;8.618;2023-02-16T09:23:24;95314.84;;;27.02;37.89
71194;BME280;58903;47.210;8.618;2023-02-16T09:26:07;95315.59;;;27.02;37.59
71194;BME280;58903;47.210;8.618;2023-02-16T09:29:04;95322.66;;;27.03;37.77
71194;BME280;58903;47.210;8.618;2023-02-16T09:31:41;95318.38;;;27.02;38.17
71194;BME280;58903;47.210;8.618;2023-02-16T09:34:26;95319.34;;;26.99;37.65
71194;BME280;58903;47.210;8.618;2023-02-16T09:37:05;95314.59;;;27.00;37.73
71194;BME280;58903;47.210;8.618;2023-02-16T09:39:31;95313.34;;;27.01;37.85
71194;BME280;58903;47.210;8.618;2023-02-16T09:47:27;95311.09;;;27.05;37.05
71194;BME280;58903;47.210;8.618;2023-02-16T09:53:08;95305.56;;;27.05;37.58
71194;BME280;58903;47.210;8.618;2023-02-16T09:59:09;95320.66;;;27.09;37.67
71194;BME280;58903;47.210;8.618;2023-02-16T10:02:03;95310.13;;;27.08;37.53
71194;BME280;58903;47.210;8.618;2023-02-16T10:10:28;95309.81;;;27.06;36.92
71194;BME280;58903;47.210;8.618;2023-02-16T10:13:02;95310.59;;;27.06;37.78
71194;BME280;58903;47.210;8.618;2023-02-16T10:15:47;95312.59;;;27.06;37.20
71194;BME280;58903;47.210;8.618;2023-02-16T10:18:27;95310.13;;;27.08;37.38
71194;BME280;58903;47.210;8.618;2023-02-16T10:21:01;95305.81;;;27.07;37.94
71194;BME280;58903;47.210;8.618;2023-02-16T10:24:05;95300.81;;;27.11;37.91
71194;BME280;58903;47.210;8.618;2023-02-16T10:26:36;95302.81;;;27.10;37.48
71194;BME280;58903;47.210;8.618;2023-02-16T10:29:14;95304.84;;;27.10;37.35
71194;BME280;58903;47.210;8.618;2023-02-16T10:45:59;95309.09;;;27.11;37.03
71194;BME280;58903;47.210;8.618;2023-02-16T10:48:26;95311.34;;;27.12;36.96
71194;BME280;58903;47.210;8.618;2023-02-16T10:51:11;95304.34;;;27.11;37.61
71194;BME280;58903;47.210;8.618;2023-02-16T10:53:47;95305.81;;;27.12;37.02
71194;BME280;58903;47.210;8.618;2023-02-16T11:02:24;95299.31;;;27.15;37.10
71194;BME280;58903;47.210;8.618;2023-02-16T11:04:53;95295.06;;;27.14;36.89
71194;BME280;58903;47.210;8.618;2023-02-16T11:07:31;95296.06;;;27.17;36.92
71194;BME280;58903;47.210;8.618;2023-02-16T11:13:16;95294.81;;;27.18;37.16
71194;BME280;58903;47.210;8.618;2023-02-16T11:15:51;95288.53;;;27.17;36.36
71194;BME280;58903;47.210;8.618;2023-02-16T11:21:15;95292.28;;;27.20;36.27
71194;BME280;58903;47.210;8.618;2023-02-16T11:23:43;95279.25;;;27.20;36.45
71194;BME280;58903;47.210;8.618;2023-02-16T11:26:25;95284.28;;;27.16;36.71
71194;BME280;58903;47.210;8.618;2023-02-16T11:28:52;95271.69;;;27.15;36.70
71194;BME280;58903;47.210;8.618;2023-02-16T11:34:06;95271.44;;;27.19;36.12
71194;BME280;58903;47.210;8.618;2023-02-16T11:36:45;95276.22;;;27.18;36.54
71194;BME280;58903;47.210;8.618;2023-02-16T11:39:46;95273.72;;;27.20;36.23
71194;BME280;58903;47.210;8.618;2023-02-16T11:42:39;95277.72;;;27.19;36.18
71194;BME280;58903;47.210;8.618;2023-02-16T11:45:37;95270.44;;;27.22;36.34
71194;BME280;58903;47.210;8.618;2023-02-16T11:48:12;95263.69;;;27.23;36.57
71194;BME280;58903;47.210;8.618;2023-02-16T11:50:55;95264.41;;;27.23;36.22
71194;BME280;58903;47.210;8.618;2023-02-16T11:53:27;95251.88;;;27.22;36.23
71194;BME280;58903;47.210;8.618;2023-02-16T11:56:28;95257.16;;;27.26;36.30
71194;BME280;58903;47.210;8.618;2023-02-16T11:59:16;95263.69;;;27.28;36.01
71194;BME280;58903;47.210;8.618;2023-02-16T12:04:48;95254.38;;;27.26;35.59
71194;BME280;58903;47.210;8.618;2023-02-16T12:19:48;95250.88;;;27.31;35.00
71194;BME280;58903;47.210;8.618;2023-02-16T12:43:36;95222.03;;;27.37;34.58
71194;BME280;58903;47.210;8.618;2023-02-16T12:49:47;95203.69;;;27.40;34.16
71194;BME280;58903;47.210;8.618;2023-02-16T12:56:03;95202.91;;;27.45;34.49
71194;BME280;58903;47.210;8.618;2023-02-16T12:58:41;95203.94;;;27.47;34.51
71194;BME280;58903;47.210;8.618;2023-02-16T13:01:17;95189.88;;;27.45;34.55
71194;BME280;58903;47.210;8.618;2023-02-16T13:07:12;95195.66;;;27.53;33.83
71194;BME280;58903;47.210;8.618;2023-02-16T13:10:34;95196.38;;;27.53;33.74
71194;BME280;58903;47.210;8.618;2023-02-16T13:18:30;95179.28;;;27.60;33.93
71194;BME280;58903;47.210;8.618;2023-02-16T13:44:19;95163.66;;;27.80;33.81
71194;BME280;58903;47.210;8.618;2023-02-16T13:47:29;95166.19;;;27.78;33.78
71194;BME280;58903;47.210;8.618;2023-02-16T13:50:23;95155.88;;;27.78;33.75
71194;BME280;58903;47.210;8.618;2023-02-16T13:55:43;95147.84;;;27.86;33.78
71194;BME280;58903;47.210;8.618;2023-02-16T14:17:14;95131.44;;;28.10;33.76
71194;BME280;58903;47.210;8.618;2023-02-16T14:24:58;95133.94;;;28.08;34.13
71194;BME280;58903;47.210;8.618;2023-02-16T14:27:56;95127.66;;;28.07;34.24
71194;BME280;58903;47.210;8.618;2023-02-16T14:31:01;95136.97;;;28.10;34.22
71194;BME280;58903;47.210;8.618;2023-02-16T14:34:06;95133.94;;;28.08;34.37
71194;BME280;58903;47.210;8.618;2023-02-16T14:40:14;95128.16;;;28.06;34.25
71194;BME280;58903;47.210;8.618;2023-02-16T14:43:04;95124.91;;;28.02;34.72
71194;BME280;58903;47.210;8.618;2023-02-16T14:54:40;95126.91;;;28.07;34.29
71194;BME280;58903;47.210;8.618;2023-02-16T14:57:26;95124.38;;;28.09;34.30
71194;BME280;58903;47.210;8.618;2023-02-16T15:06:00;95130.66;;;28.09;34.37
71194;BME280;58903;47.210;8.618;2023-02-16T15:09:03;95135.69;;;28.11;34.35
71194;BME280;58903;47.210;8.618;2023-02-16T15:15:44;95127.88;;;28.15;34.40
71194;BME280;58903;47.210;8.618;2023-02-16T15:18:23;95126.63;;;28.10;34.04
71194;BME280;58903;47.210;8.618;2023-02-16T15:21:24;95134.94;;;28.10;34.46
71194;BME280;58903;47.210;8.618;2023-02-16T15:23:59;95133.69;;;28.11;34.34
71194;BME280;58903;47.210;8.618;2023-02-16T15:26:33;95132.69;;;28.09;34.55
71194;BME280;58903;47.210;8.618;2023-02-16T15:32:27;95134.69;;;28.08;34.53
71194;BME280;58903;47.210;8.618;2023-02-16T15:34:57;95139.47;;;28.08;34.77
71194;BME280;58903;47.210;8.618;2023-02-16T15:37:35;95137.22;;;28.06;34.86
71194;BME280;58903;47.210;8.618;2023-02-16T15:40:24;95132.19;;;28.05;34.62
71194;BME280;58903;47.210;8.618;2023-02-16T15:43:06;95131.94;;;28.03;34.65
71194;BME280;58903;47.210;8.618;2023-02-16T15:45:37;95129.19;;;28.03;34.68
71194;BME280;58903;47.210;8.618;2023-02-16T15:48:30;95140.00;;;28.01;34.66
71194;BME280;58903;47.210;8.618;2023-02-16T15:54:37;95136.97;;;28.04;34.62
71194;BME280;58903;47.210;8.618;2023-02-16T15:57:34;95136.44;;;28.06;34.68
71194;BME280;58903;47.210;8.618;2023-02-16T16:00:24;95135.72;;;28.05;35.01
71194;BME280;58903;47.210;8.618;2023-02-16T16:02:56;95140.50;;;28.05;34.82
71194;BME280;58903;47.210;8.618;2023-02-16T16:06:04;95149.03;;;28.07;34.67
71194;BME280;58903;47.210;8.618;2023-02-16T16:08:32;95151.56;;;28.05;34.75
71194;BME280;58903;47.210;8.618;2023-02-16T16:11:01;95143.25;;;28.05;34.72
71194;BME280;58903;47.210;8.618;2023-02-16T16:13:29;95141.50;;;28.02;34.40
71194;BME280;58903;47.210;8.618;2023-02-16T16:16:14;95147.03;;;28.02;34.91
71194;BME280;58903;47.210;8.618;2023-02-16T16:19:07;95148.31;;;28.01;34.95
71194;BME280;58903;47.210;8.618;2023-02-16T16:21:59;95148.31;;;28.01;34.95
71194;BME280;58903;47.210;8.618;2023-02-16T16:24:59;95149.31;;;27.98;34.53
71194;BME280;58903;47.210;8.618;2023-02-16T16:27:34;95152.56;;;27.96;34.76
71194;BME280;58903;47.210;8.618;2023-02-16T16:33:18;95155.56;;;27.93;34.82
71194;BME280;58903;47.210;8.618;2023-02-16T16:35:54;95154.84;;;27.92;34.97
71194;BME280;58903;47.210;8.618;2023-02-16T16:44:57;95156.38;;;27.88;35.24
71194;BME280;58903;47.210;8.618;2023-02-16T16:48:05;95156.84;;;27.86;35.13
71194;BME280;58903;47.210;8.618;2023-02-16T16:56:33;95150.09;;;27.82;35.19
71194;BME280;58903;47.210;8.618;2023-02-16T16:59:25;95155.88;;;27.84;35.02
71194;BME280;58903;47.210;8.618;2023-02-16T17:02:25;95153.63;;;27.77;35.06
71194;BME280;58903;47.210;8.618;2023-02-16T17:05:04;95153.88;;;27.79;35.12
71194;BME280;58903;47.210;8.618;2023-02-16T17:07:31;95160.16;;;27.79;35.39
71194;BME280;58903;47.210;8.618;2023-02-16T17:10:00;95158.88;;;27.80;34.98
71194;BME280;58903;47.210;8.618;2023-02-16T17:12:28;95175.47;;;27.80;35.59
71194;BME280;58903;47.210;8.618;2023-02-16T17:14:56;95170.97;;;27.77;34.56
71194;BME280;58903;47.210;8.618;2023-02-16T17:17:22;95172.75;;;27.75;34.93
71194;BME280;58903;47.210;8.618;2023-02-16T17:19:51;95168.47;;;27.74;35.23
71194;BME280;58903;47.210;8.618;2023-02-16T17:22:19;95175.50;;;27.75;35.21
71194;BME280;58903;47.210;8.618;2023-02-16T17:24:45;95171.22;;;27.74;35.71
71194;BME280;58903;47.210;8.618;2023-02-16T17:27:13;95174.75;;;27.74;35.72
71194;BME280;58903;47.210;8.618;2023-02-16T17:29:48;95176.75;;;27.74;35.42
71194;BME280;58903;47.210;8.618;2023-02-16T17:32:16;95189.81;;;27.79;35.75
71194;BME280;58903;47.210;8.618;2023-02-16T17:34:53;95183.78;;;27.80;35.60
71194;BME280;58903;47.210;8.618;2023-02-16T17:43:48;95186.81;;;27.77;35.64
71194;BME280;58903;47.210;8.618;2023-02-16T17:46:18;95179.50;;;27.79;35.39
71194;BME280;58903;47.210;8.618;2023-02-16T17:48:59;95183.53;;;27.78;35.69
71194;BME280;58903;47.210;8.618;2023-02-16T17:51:31;95172.75;;;27.75;35.21
71194;BME280;58903;47.210;8.618;2023-02-16T17:54:03;95181.78;;;27.75;35.36
71194;BME280;58903;47.210;8.618;2023-02-16T17:56:30;95168.97;;;27.72;35.76
71194;BME280;58903;47.210;8.618;2023-02-16T17:58:57;95168.97;;;27.72;35.47
71194;BME280;58903;47.210;8.618;2023-02-16T18:01:25;95173.50;;;27.70;35.58
71194;BME280;58903;47.210;8.618;2023-02-16T18:03:52;95178.50;;;27.71;35.41
71194;BME280;58903;47.210;8.618;2023-02-16T18:06:22;95167.97;;;27.70;35.27
71194;BME280;58903;47.210;8.618;2023-02-16T18:08:54;95178.53;;;27.66;35.72
71194;BME280;58903;47.210;8.618;2023-02-16T18:11:21;95176.00;;;27.68;35.73
71194;BME280;58903;47.210;8.618;2023-02-16T18:13:47;95178.53;;;27.66;35.18
71194;BME280;58903;47.210;8.618;2023-02-16T18:16:18;95177.78;;;27.65;35.72
71194;BME280;58903;47.210;8.618;2023-02-16T18:18:46;95176.53;;;27.66;35.64